Time;durP1;ratioP1;P1;durP2;ratioP2;P2;SDS_P1;SDS_P2;PMS_P1;PMS_P2;Temp;Humidity;BMP_temperature;BMP_pressure;BME280_temperature;BME280_humidity;BME280_pressure;Samples;Min_cycle;Max_cycle;Signal;HPM_P1;HPM_P2
2021/05/13 00:01:48;;;;;;;35.95;20.95;;;10.60;91.70;;;;;;5113899;28;20350;-73
2021/05/13 00:04:13;;;;;;;35.83;22.00;;;10.60;91.80;;;;;;5112625;28;20058;-73
2021/05/13 00:06:39;;;;;;;38.00;22.60;;;10.60;91.90;;;;;;5114292;28;20513;-74
2021/05/13 00:09:09;;;;;;;43.35;22.30;;;10.60;92.00;;;;;;5112859;28;20140;-73
2021/05/13 00:11:36;;;;;;;37.65;22.35;;;10.50;92.00;;;;;;5114525;28;20047;-73
2021/05/13 00:14:05;;;;;;;31.98;19.92;;;10.50;92.00;;;;;;5113825;28;20100;-73
2021/05/13 00:16:34;;;;;;;38.42;21.27;;;10.50;92.00;;;;;;5112768;28;20035;-74
2021/05/13 00:19:04;;;;;;;35.45;21.70;;;10.50;92.10;;;;;;5113112;28;20073;-73
2021/05/13 00:21:29;;;;;;;37.75;22.50;;;10.60;92.10;;;;;;5092433;28;20023;-73
2021/05/13 00:23:55;;;;;;;38.10;22.08;;;10.60;92.10;;;;;;5104651;28;20023;-73
2021/05/13 00:29:14;;;;;;;41.15;23.60;;;10.60;92.30;;;;;;5114180;28;20111;-73
2021/05/13 00:31:41;;;;;;;39.90;25.30;;;10.60;92.30;;;;;;5111574;28;20070;-73
2021/05/13 00:34:07;;;;;;;39.97;23.42;;;10.60;92.30;;;;;;5112798;28;20043;-73
2021/05/13 00:36:34;;;;;;;39.33;23.10;;;10.70;92.30;;;;;;5111771;28;20028;-74
2021/05/13 00:39:01;;;;;;;34.78;21.52;;;10.70;92.30;;;;;;5114269;28;20027;-74
2021/05/13 00:41:27;;;;;;;39.05;22.17;;;10.70;92.10;;;;;;5113986;28;20055;-73
2021/05/13 00:43:53;;;;;;;37.65;21.05;;;10.70;92.00;;;;;;5106329;28;20059;-72
2021/05/13 00:46:22;;;;;;;36.22;21.63;;;10.70;91.80;;;;;;5093722;28;20527;-73
2021/05/13 00:48:47;;;;;;;42.33;21.60;;;10.60;91.60;;;;;;5092379;28;20039;-72
2021/05/13 00:51:14;;;;;;;33.45;20.40;;;10.60;91.60;;;;;;5081337;28;20032;-73
2021/05/13 00:53:44;;;;;;;37.55;22.33;;;10.50;91.60;;;;;;5107914;28;20023;-72
2021/05/13 00:56:09;;;;;;;37.00;22.23;;;10.40;91.60;;;;;;5113101;28;20496;-72
2021/05/13 00:58:38;;;;;;;39.22;22.77;;;10.40;91.60;;;;;;5083139;28;20032;-72
2021/05/13 01:01:06;;;;;;;36.58;23.10;;;10.40;91.90;;;;;;5093572;28;20024;-72
2021/05/13 01:03:34;;;;;;;39.38;23.60;;;10.30;91.60;;;;;;5094731;28;20066;-71
2021/05/13 01:06:03;;;;;;;39.25;23.55;;;10.20;91.70;;;;;;5101960;28;20016;-71
2021/05/13 01:08:29;;;;;;;41.92;23.20;;;10.20;91.80;;;;;;5114607;28;20076;-71
2021/05/13 01:10:54;;;;;;;37.38;23.00;;;10.10;91.70;;;;;;5112609;28;20107;-73
2021/05/13 01:13:23;;;;;;;41.75;24.27;;;10.10;91.70;;;;;;5113631;28;20031;-71
2021/05/13 01:16:12;;;;;;;37.80;21.95;;;10.00;91.70;;;;;;5112980;28;20077;-71
2021/05/13 01:18:36;;;;;;;35.45;22.15;;;10.00;91.90;;;;;;5116322;28;20039;-74
2021/05/13 01:21:02;;;;;;;33.47;18.10;;;10.00;92.00;;;;;;5099943;28;20034;-71
2021/05/13 01:23:28;;;;;;;29.25;16.23;;;9.90;92.00;;;;;;5113331;28;20094;-71
2021/05/13 01:25:56;;;;;;;25.95;15.70;;;9.80;92.10;;;;;;5113006;28;20115;-71
2021/05/13 01:28:25;;;;;;;24.65;14.30;;;9.80;92.10;;;;;;5112033;28;20531;-72
2021/05/13 01:30:52;;;;;;;22.73;13.82;;;9.80;92.10;;;;;;5111453;28;20428;-73
2021/05/13 01:33:20;;;;;;;30.55;15.23;;;9.80;92.10;;;;;;5111761;28;20020;-72
2021/05/13 01:35:46;;;;;;;23.38;13.88;;;9.80;92.00;;;;;;5111375;28;20493;-74
2021/05/13 01:38:16;;;;;;;25.38;14.02;;;9.70;91.90;;;;;;5113220;28;20476;-72
2021/05/13 01:40:53;;;;;;;23.23;13.55;;;9.60;91.80;;;;;;5111438;28;20023;-72
2021/05/13 01:43:19;;;;;;;23.27;13.30;;;9.50;91.80;;;;;;5079040;28;20031;-73
2021/05/13 01:45:45;;;;;;;22.75;12.75;;;9.40;91.80;;;;;;5109502;28;20424;-73
2021/05/13 01:48:10;;;;;;;22.50;12.73;;;9.40;92.00;;;;;;5117249;28;20027;-72
2021/05/13 01:50:36;;;;;;;22.95;13.35;;;9.30;92.00;;;;;;5117095;28;20116;-72
2021/05/13 01:53:05;;;;;;;22.85;13.20;;;9.30;92.10;;;;;;5115477;28;20382;-73
2021/05/13 01:55:32;;;;;;;25.63;14.07;;;9.10;92.20;;;;;;5116881;28;20039;-72
2021/05/13 01:57:58;;;;;;;26.33;15.13;;;9.10;92.30;;;;;;5115773;28;20118;-72
2021/05/13 02:00:24;;;;;;;25.17;14.57;;;9.10;92.30;;;;;;5116686;28;20095;-73
2021/05/13 02:02:50;;;;;;;23.67;13.73;;;9.00;92.50;;;;;;5116919;28;20027;-73
2021/05/13 02:05:21;;;;;;;23.13;12.52;;;8.90;92.70;;;;;;5115271;28;20028;-73
2021/05/13 02:07:47;;;;;;;21.25;13.50;;;8.90;92.90;;;;;;5117127;28;20027;-73
2021/05/13 02:10:14;;;;;;;23.38;13.70;;;8.90;92.90;;;;;;5115509;28;20028;-73
2021/05/13 02:12:40;;;;;;;24.77;14.20;;;8.90;92.80;;;;;;5111734;28;20024;-73
2021/05/13 02:15:08;;;;;;;25.02;13.48;;;8.90;92.80;;;;;;5108857;28;20482;-73
2021/05/13 02:17:34;;;;;;;21.63;12.75;;;8.90;92.90;;;;;;5115020;28;20027;-73
2021/05/13 02:20:00;;;;;;;22.33;12.73;;;8.90;93.00;;;;;;5116773;28;20102;-72
2021/05/13 02:22:25;;;;;;;22.40;12.20;;;8.90;93.10;;;;;;5115084;28;20055;-75
2021/05/13 02:24:51;;;;;;;20.20;13.15;;;8.80;92.90;;;;;;5115255;28;20020;-73
2021/05/13 02:27:16;;;;;;;21.88;12.88;;;8.80;93.10;;;;;;5114676;28;20063;-73
2021/05/13 02:29:42;;;;;;;22.27;12.60;;;8.80;93.30;;;;;;5115429;28;20054;-73
2021/05/13 02:32:08;;;;;;;19.55;11.35;;;8.80;93.40;;;;;;5116964;28;20069;-73
2021/05/13 02:34:33;;;;;;;20.00;11.85;;;8.80;93.40;;;;;;5115876;28;20453;-72
2021/05/13 02:36:59;;;;;;;19.75;12.27;;;8.80;93.60;;;;;;5116598;28;20106;-72
2021/05/13 02:39:25;;;;;;;20.27;11.65;;;8.90;93.90;;;;;;5116028;28;20492;-72
2021/05/13 02:41:50;;;;;;;19.45;11.43;;;8.90;93.90;;;;;;5108339;28;20457;-72
2021/05/13 02:44:16;;;;;;;19.73;12.02;;;9.00;94.00;;;;;;5095906;28;20033;-72
2021/05/13 02:46:41;;;;;;;21.10;11.88;;;9.00;94.10;;;;;;5096032;28;20567;-72
2021/05/13 02:49:07;;;;;;;21.13;13.57;;;9.10;94.10;;;;;;5082973;28;20173;-72
2021/05/13 02:51:33;;;;;;;19.25;12.02;;;9.20;94.10;;;;;;5111531;28;20027;-71
2021/05/13 02:53:59;;;;;;;21.17;12.57;;;9.20;94.00;;;;;;5110402;28;20358;-73
2021/05/13 02:56:24;;;;;;;19.38;11.93;;;9.30;93.80;;;;;;5082705;28;20058;-74
2021/05/13 02:58:51;;;;;;;18.70;11.73;;;9.40;93.80;;;;;;5090943;28;20103;-73
2021/05/13 03:01:29;;;;;;;24.65;13.20;;;9.40;93.70;;;;;;5088263;28;20069;-73
2021/05/13 03:03:55;;;;;;;26.70;14.95;;;9.40;93.60;;;;;;5093857;28;20016;-73
2021/05/13 03:06:22;;;;;;;24.35;13.93;;;9.40;93.60;;;;;;5104001;28;20032;-73
2021/05/13 03:08:55;;;;;;;27.45;13.52;;;9.40;93.70;;;;;;5102890;28;20052;-74
2021/05/13 03:11:26;;;;;;;24.50;13.75;;;9.50;93.70;;;;;;5112249;28;20110;-73
2021/05/13 03:13:55;;;;;;;23.05;14.13;;;9.60;93.50;;;;;;5083367;28;20028;-73
2021/05/13 03:16:21;;;;;;;22.08;14.95;;;9.60;93.60;;;;;;5077274;28;20128;-75
2021/05/13 03:18:52;;;;;;;29.60;16.60;;;9.70;93.70;;;;;;5078888;28;20107;-74
2021/05/13 03:21:30;;;;;;;27.35;16.42;;;9.70;93.60;;;;;;5080311;28;20020;-74
2021/05/13 03:26:44;;;;;;;32.22;19.05;;;9.80;93.20;;;;;;5077167;27;20387;-73
2021/05/13 03:29:10;;;;;;;30.60;18.50;;;9.90;93.10;;;;;;5078859;28;20086;-74
2021/05/13 03:31:36;;;;;;;31.50;18.88;;;10.00;93.20;;;;;;5082824;28;20028;-73
2021/05/13 03:34:02;;;;;;;34.08;19.52;;;10.10;93.00;;;;;;5107926;28;20027;-74
2021/05/13 03:36:31;;;;;;;31.98;18.70;;;10.10;92.90;;;;;;5098824;28;20034;-74
2021/05/13 03:38:57;;;;;;;30.23;17.48;;;10.10;92.60;;;;;;5113028;28;20034;-73
2021/05/13 03:41:22;;;;;;;31.60;17.73;;;10.10;92.30;;;;;;5097659;28;20027;-73
2021/05/13 03:43:48;;;;;;;29.35;16.60;;;10.10;92.50;;;;;;5093147;28;20534;-74
2021/05/13 03:46:14;;;;;;;21.70;12.85;;;10.20;92.50;;;;;;5087617;28;20474;-74
2021/05/13 03:48:39;;;;;;;20.30;12.05;;;10.30;92.60;;;;;;5092217;28;20072;-74
2021/05/13 03:51:05;;;;;;;15.10;9.30;;;10.50;92.50;;;;;;5080375;28;20100;-74
2021/05/13 03:53:31;;;;;;;11.90;8.85;;;10.60;92.20;;;;;;5103957;28;20026;-73
2021/05/13 03:55:56;;;;;;;12.88;6.90;;;10.80;92.10;;;;;;5110778;28;20019;-73
2021/05/13 03:58:24;;;;;;;10.55;6.82;;;11.00;91.90;;;;;;5110473;28;20023;-73
2021/05/13 04:03:15;;;;;;;10.75;6.93;;;11.90;92.10;;;;;;5108756;28;20028;-74
2021/05/13 04:05:42;;;;;;;10.60;7.07;;;12.60;92.30;;;;;;5105400;28;20034;-74
2021/05/13 04:08:08;;;;;;;11.60;6.72;;;13.40;92.00;;;;;;5106435;28;20077;-75
2021/05/13 04:10:35;;;;;;;10.73;8.02;;;14.00;88.80;;;;;;5100208;28;20039;-75
2021/05/13 04:13:03;;;;;;;8.07;5.60;;;14.40;83.60;;;;;;5094334;28;20078;-76
2021/05/13 04:15:29;;;;;;;7.05;5.40;;;14.80;82.60;;;;;;5085339;28;20405;-74
2021/05/13 04:17:55;;;;;;;8.50;5.45;;;15.30;80.60;;;;;;5088593;28;20024;-73
2021/05/13 04:20:21;;;;;;;7.32;5.78;;;16.00;79.20;;;;;;5089415;28;20394;-75
2021/05/13 04:22:47;;;;;;;6.82;5.03;;;16.50;76.20;;;;;;5096847;28;20027;-73
2021/05/13 04:25:13;;;;;;;8.73;6.00;;;17.10;74.30;;;;;;5100171;28;20035;-73
2021/05/13 04:27:39;;;;;;;9.32;6.20;;;17.50;71.40;;;;;;5095101;28;20023;-74
2021/05/13 04:30:05;;;;;;;8.80;5.47;;;17.90;69.80;;;;;;5090940;28;20035;-73
2021/05/13 04:32:31;;;;;;;8.32;5.43;;;18.20;66.90;;;;;;5098892;28;20024;-75
2021/05/13 04:34:56;;;;;;;7.03;4.72;;;18.60;65.50;;;;;;5092341;28;20387;-74
2021/05/13 04:37:22;;;;;;;7.63;4.72;;;18.80;63.50;;;;;;5084312;28;20031;-76
2021/05/13 04:39:48;;;;;;;6.28;5.00;;;18.80;62.80;;;;;;5088373;28;20482;-74
2021/05/13 04:42:14;;;;;;;8.23;5.25;;;18.80;61.60;;;;;;5090331;28;20389;-78
2021/05/13 04:44:40;;;;;;;10.15;6.30;;;18.90;60.70;;;;;;5088913;28;20051;-75
2021/05/13 04:49:52;;;;;;;4.70;3.80;;;19.00;59.90;;;;;;5082622;28;20059;-74
2021/05/13 04:52:20;;;;;;;5.43;3.80;;;19.10;58.20;;;;;;5083813;28;20074;-75
2021/05/13 04:54:54;;;;;;;4.60;3.58;;;19.10;58.40;;;;;;5105657;28;20032;-75
2021/05/13 04:57:20;;;;;;;5.68;4.10;;;19.10;57.50;;;;;;5101737;28;20036;-75
2021/05/13 04:59:46;;;;;;;8.57;4.20;;;19.10;58.30;;;;;;5102152;28;20038;-75
2021/05/13 05:02:12;;;;;;;8.20;4.63;;;19.20;57.80;;;;;;5090558;28;20024;-74
2021/05/13 05:04:38;;;;;;;10.75;5.15;;;19.40;58.00;;;;;;5095719;28;20028;-75
2021/05/13 05:07:04;;;;;;;7.57;4.38;;;19.70;58.20;;;;;;5099538;28;20081;-74
2021/05/13 05:09:30;;;;;;;5.55;3.83;;;19.90;56.00;;;;;;5106215;28;20031;-75
2021/05/13 05:11:55;;;;;;;11.20;5.25;;;19.80;55.00;;;;;;5089672;28;20024;-74
2021/05/13 05:14:21;;;;;;;5.78;4.03;;;19.70;56.00;;;;;;5098263;28;20048;-73
2021/05/13 05:16:47;;;;;;;9.70;4.50;;;19.70;56.80;;;;;;5083348;28;20304;-74
2021/05/13 05:19:14;;;;;;;7.25;4.25;;;19.90;56.40;;;;;;5088230;28;20023;-73
2021/05/13 05:21:40;;;;;;;8.23;4.82;;;20.10;56.40;;;;;;5091394;28;20028;-75
2021/05/13 05:24:06;;;;;;;6.20;3.92;;;20.50;56.10;;;;;;5083958;28;20028;-73
2021/05/13 05:26:33;;;;;;;6.25;4.55;;;21.00;55.50;;;;;;5093614;28;20031;-76
2021/05/13 05:28:59;;;;;;;7.35;3.92;;;21.30;54.50;;;;;;5092503;28;20100;-75
2021/05/13 05:31:25;;;;;;;9.05;3.92;;;21.60;53.00;;;;;;5096036;28;20123;-75
2021/05/13 05:33:51;;;;;;;5.22;3.30;;;21.70;52.50;;;;;;5090444;28;20099;-75
2021/05/13 05:36:16;;;;;;;6.50;3.40;;;21.80;52.10;;;;;;5083581;28;20041;-74
2021/05/13 05:38:42;;;;;;;5.45;3.88;;;21.80;51.50;;;;;;5082133;28;20024;-73
2021/05/13 05:41:08;;;;;;;5.13;3.60;;;21.90;51.40;;;;;;5087848;28;20033;-74
2021/05/13 05:43:33;;;;;;;6.47;3.17;;;21.90;51.30;;;;;;5083920;28;20039;-76
2021/05/13 05:45:59;;;;;;;5.07;2.75;;;22.00;50.40;;;;;;5084061;28;20033;-75
2021/05/13 05:48:25;;;;;;;4.63;2.88;;;22.10;49.80;;;;;;5083714;28;20083;-79
2021/05/13 05:50:50;;;;;;;4.72;2.88;;;21.90;49.20;;;;;;5084345;28;20052;-76
2021/05/13 05:53:16;;;;;;;4.80;2.75;;;21.80;50.40;;;;;;5086482;28;20031;-78
2021/05/13 05:55:42;;;;;;;3.63;2.75;;;22.00;49.80;;;;;;5090780;28;20064;-76
2021/05/13 05:58:08;;;;;;;4.40;3.35;;;22.20;49.40;;;;;;5095914;28;20024;-72
2021/05/13 06:00:34;;;;;;;10.73;4.05;;;22.50;49.10;;;;;;5083076;28;20028;-77
2021/05/13 06:03:00;;;;;;;4.85;3.22;;;22.70;48.60;;;;;;5080810;28;20028;-74
2021/05/13 06:05:26;;;;;;;6.07;2.83;;;23.00;48.40;;;;;;5082869;28;20528;-72
2021/05/13 06:07:52;;;;;;;3.30;2.13;;;23.20;48.80;;;;;;5101419;28;20020;-80
2021/05/13 06:10:18;;;;;;;3.40;2.40;;;23.60;47.60;;;;;;5103940;28;20025;-75
2021/05/13 06:12:44;;;;;;;2.78;2.15;;;23.80;46.70;;;;;;5098128;28;20024;-74
2021/05/13 06:15:13;;;;;;;5.63;2.53;;;23.90;45.90;;;;;;5092023;28;20098;-73
2021/05/13 06:17:39;;;;;;;6.65;2.88;;;24.00;45.00;;;;;;5081798;28;20044;-77
2021/05/13 06:20:15;;;;;;;2.90;2.05;;;24.00;44.60;;;;;;5091261;28;20470;-77
2021/05/13 06:22:41;;;;;;;4.57;2.70;;;23.90;44.00;;;;;;5092685;28;20027;-72
2021/05/13 06:25:07;;;;;;;4.82;2.35;;;23.80;44.40;;;;;;5090945;28;20103;-73
2021/05/13 06:27:32;;;;;;;6.50;2.88;;;23.80;44.70;;;;;;5090845;28;20028;-75
2021/05/13 06:29:58;;;;;;;4.88;2.20;;;23.80;44.80;;;;;;5086615;28;20036;-72
2021/05/13 06:32:25;;;;;;;2.03;1.80;;;23.80;44.40;;;;;;5093160;28;20031;-68
2021/05/13 06:34:51;;;;;;;4.32;1.90;;;24.10;44.70;;;;;;5111133;27;20020;-69
2021/05/13 06:37:17;;;;;;;2.17;1.75;;;24.20;43.60;;;;;;5102651;28;20114;-71
2021/05/13 06:39:45;;;;;;;2.85;1.52;;;24.30;42.80;;;;;;5087771;28;20016;-68
2021/05/13 06:42:11;;;;;;;3.72;1.60;;;24.10;41.90;;;;;;5084488;28;20032;-71
2021/05/13 06:44:36;;;;;;;3.83;1.92;;;23.70;41.90;;;;;;5092739;28;20671;-69
2021/05/13 06:47:02;;;;;;;2.30;1.35;;;23.30;41.90;;;;;;5101644;28;20035;-69
2021/05/13 06:49:28;;;;;;;5.00;1.67;;;23.10;42.30;;;;;;5089615;28;20563;-74
2021/05/13 06:51:54;;;;;;;2.50;1.70;;;23.30;43.00;;;;;;5091730;28;20023;-68
2021/05/13 06:54:20;;;;;;;2.50;1.92;;;23.10;42.40;;;;;;5097145;28;20382;-69
2021/05/13 06:56:47;;;;;;;3.35;1.75;;;22.70;42.50;;;;;;5110099;28;20035;-68
2021/05/13 06:59:13;;;;;;;2.30;1.60;;;22.50;43.10;;;;;;5115716;28;20385;-68
2021/05/13 07:01:38;;;;;;;2.25;1.83;;;22.40;43.60;;;;;;5097822;28;20027;-68
2021/05/13 07:04:04;;;;;;;5.60;1.80;;;22.20;43.70;;;;;;5111056;28;20074;-68
2021/05/13 07:06:34;;;;;;;3.00;1.80;;;22.00;43.90;;;;;;5107296;28;20035;-68
2021/05/13 07:09:00;;;;;;;4.93;2.25;;;21.80;44.40;;;;;;5115651;28;20012;-68
2021/05/13 07:11:26;;;;;;;3.97;2.30;;;21.80;44.50;;;;;;5115878;28;20038;-68
2021/05/13 07:13:52;;;;;;;4.45;2.55;;;21.70;44.40;;;;;;5115121;28;20070;-68
2021/05/13 07:16:17;;;;;;;5.85;2.03;;;21.80;45.10;;;;;;5115564;28;20416;-68
2021/05/13 07:18:43;;;;;;;3.08;1.85;;;21.90;45.30;;;;;;5114917;28;20034;-70
2021/05/13 07:21:09;;;;;;;1.92;1.42;;;22.10;44.80;;;;;;5114947;28;20024;-67
2021/05/13 07:23:34;;;;;;;4.38;1.80;;;21.90;43.30;;;;;;5115485;28;20027;-67
2021/05/13 07:26:00;;;;;;;4.18;1.77;;;21.60;43.40;;;;;;5114900;28;20050;-67
2021/05/13 07:28:26;;;;;;;3.72;1.50;;;21.40;44.00;;;;;;5115111;28;20488;-75
2021/05/13 07:30:52;;;;;;;6.22;2.60;;;21.20;44.20;;;;;;5114943;28;20026;-67
2021/05/13 07:33:18;;;;;;;9.80;2.60;;;20.90;45.50;;;;;;5115172;28;20035;-67
2021/05/13 07:35:44;;;;;;;15.98;8.35;;;20.50;47.50;;;;;;5115215;28;20027;-67
2021/05/13 07:38:13;;;;;;;15.73;10.18;;;20.30;48.70;;;;;;5114736;28;20469;-67
2021/05/13 07:40:38;;;;;;;15.23;9.20;;;20.00;50.30;;;;;;5114136;27;20024;-67
2021/05/13 07:43:05;;;;;;;14.57;9.95;;;19.70;50.40;;;;;;5114502;28;20031;-69
2021/05/13 07:45:33;;;;;;;8.55;4.20;;;19.50;51.70;;;;;;5115114;28;20028;-67
2021/05/13 07:47:59;;;;;;;9.52;4.95;;;19.40;52.70;;;;;;5114243;28;20462;-67
2021/05/13 07:50:25;;;;;;;6.93;4.13;;;19.20;53.60;;;;;;5114857;28;20027;-73
2021/05/13 07:52:52;;;;;;;8.02;4.20;;;19.20;54.30;;;;;;5114760;28;20027;-67
2021/05/13 07:55:18;;;;;;;11.82;4.90;;;19.10;54.90;;;;;;5114634;28;20421;-67
2021/05/13 07:57:44;;;;;;;15.05;6.50;;;19.10;54.90;;;;;;5114930;28;20043;-67
2021/05/13 08:00:11;;;;;;;8.60;4.35;;;19.10;55.10;;;;;;5114180;28;20389;-67
2021/05/13 08:02:36;;;;;;;6.85;5.40;;;18.90;55.40;;;;;;5114013;28;20023;-67
2021/05/13 08:05:03;;;;;;;8.95;4.93;;;18.70;56.00;;;;;;5114376;28;20078;-67
2021/05/13 08:07:28;;;;;;;6.75;4.40;;;18.40;56.20;;;;;;5113534;28;20466;-67
2021/05/13 08:09:54;;;;;;;8.60;5.00;;;18.20;56.90;;;;;;5114484;28;20019;-66
2021/05/13 08:12:20;;;;;;;11.05;5.07;;;17.90;57.60;;;;;;5113755;28;20019;-67
2021/05/13 08:14:46;;;;;;;10.23;5.00;;;17.80;58.30;;;;;;5113731;28;20818;-67
2021/05/13 08:17:12;;;;;;;8.38;5.75;;;18.10;59.20;;;;;;5112535;28;20366;-68
2021/05/13 08:19:38;;;;;;;10.63;6.18;;;18.40;58.30;;;;;;5101662;28;20024;-69
2021/05/13 08:22:04;;;;;;;4.85;3.60;;;18.60;57.70;;;;;;5114214;28;20031;-67
2021/05/13 08:24:30;;;;;;;7.32;5.80;;;19.00;57.50;;;;;;5113578;28;20016;-69
2021/05/13 08:26:58;;;;;;;7.20;3.20;;;19.70;57.20;;;;;;5114538;28;20483;-68
2021/05/13 08:29:24;;;;;;;6.05;3.20;;;20.40;55.00;;;;;;5110185;28;20017;-67
2021/05/13 08:31:50;;;;;;;7.30;3.17;;;20.50;52.80;;;;;;5093717;28;20020;-69
2021/05/13 08:34:16;;;;;;;6.13;3.08;;;20.70;52.60;;;;;;5108088;28;20386;-67
2021/05/13 08:36:42;;;;;;;9.52;7.43;;;21.00;52.30;;;;;;5094162;28;20166;-67
2021/05/13 08:39:08;;;;;;;10.13;7.53;;;21.50;51.60;;;;;;5093865;28;20044;-67
2021/05/13 08:41:34;;;;;;;14.50;11.85;;;21.80;50.60;;;;;;5107933;28;20095;-69
2021/05/13 08:44:00;;;;;;;7.93;4.25;;;21.70;49.50;;;;;;5082058;28;20115;-70
2021/05/13 08:46:25;;;;;;;7.65;4.53;;;21.10;49.40;;;;;;5107006;28;20081;-73
2021/05/13 08:48:51;;;;;;;5.43;3.30;;;20.40;50.10;;;;;;5104179;28;20027;-69
2021/05/13 08:51:18;;;;;;;6.72;4.00;;;20.00;52.10;;;;;;5112398;28;20439;-69
2021/05/13 08:53:55;;;;;;;3.50;2.60;;;20.00;52.50;;;;;;5097833;28;20530;-69
2021/05/13 08:56:23;;;;;;;12.75;3.08;;;19.90;52.90;;;;;;5114486;28;20088;-68
2021/05/13 08:58:48;;;;;;;6.60;2.92;;;20.10;53.00;;;;;;5097648;28;20028;-68
2021/05/13 09:01:15;;;;;;;4.18;2.38;;;20.30;53.30;;;;;;5084780;28;20029;-68
2021/05/13 09:03:42;;;;;;;6.13;3.05;;;20.60;53.30;;;;;;5109433;28;20038;-72
2021/05/13 09:06:17;;;;;;;6.88;3.55;;;20.80;52.60;;;;;;5111195;28;20141;-70
2021/05/13 09:08:42;;;;;;;;;;;21.10;52.50;;;;;;5095429;28;20024;-69
2021/05/13 09:11:12;;;;;;;4.72;3.15;;;21.40;51.80;;;;;;5092743;28;19950;-67
2021/05/13 09:13:39;;;;;;;5.00;2.90;;;21.50;50.80;;;;;;5091277;28;20067;-73
2021/05/13 09:16:32;;;;;;;4.32;2.60;;;21.60;50.40;;;;;;5077608;28;20115;-69
2021/05/13 09:18:58;;;;;;;6.00;2.55;;;21.50;50.20;;;;;;5092290;28;20375;-69
2021/05/13 09:21:24;;;;;;;4.20;2.83;;;21.40;50.60;;;;;;5092925;28;20035;-69
2021/05/13 09:23:50;;;;;;;7.57;3.60;;;21.50;50.90;;;;;;5092641;28;20024;-69
2021/05/13 09:26:18;;;;;;;4.78;2.65;;;21.60;51.70;;;;;;5091708;28;20055;-69
2021/05/13 09:29:08;;;;;;;4.13;2.40;;;21.90;51.70;;;;;;5092679;28;20055;-67
2021/05/13 09:31:37;;;;;;;5.72;2.58;;;21.90;50.80;;;;;;5092760;28;20033;-67
2021/05/13 09:34:05;;;;;;;4.22;2.38;;;21.90;49.60;;;;;;5086822;28;20031;-69
2021/05/13 09:36:30;;;;;;;4.80;2.45;;;22.00;50.30;;;;;;5078493;28;20107;-68
2021/05/13 09:38:56;;;;;;;6.10;2.40;;;22.00;50.00;;;;;;5092965;28;20103;-67
2021/05/13 09:41:30;;;;;;;5.47;2.88;;;22.00;50.00;;;;;;5092426;28;20020;-68
2021/05/13 09:43:56;;;;;;;3.75;1.90;;;22.00;49.70;;;;;;5092776;28;20020;-68
2021/05/13 09:46:37;;;;;;;5.72;2.40;;;22.20;49.10;;;;;;5092375;28;20027;-68
2021/05/13 09:49:04;;;;;;;5.00;2.63;;;22.10;47.90;;;;;;5092647;28;20102;-68
2021/05/13 09:51:36;;;;;;;3.67;1.90;;;22.00;49.00;;;;;;5092699;28;20374;-68
2021/05/13 09:54:14;;;;;;;4.80;2.00;;;22.20;48.40;;;;;;5099139;28;20434;-68
2021/05/13 09:56:51;;;;;;;3.53;2.67;;;22.20;48.20;;;;;;5111179;28;20023;-69
2021/05/13 09:59:31;;;;;;;4.25;2.10;;;22.20;48.60;;;;;;5112970;28;20024;-68
2021/05/13 10:01:58;;;;;;;6.80;2.30;;;22.00;48.40;;;;;;5111241;28;20051;-68
2021/05/13 10:04:25;;;;;;;2.63;2.00;;;21.90;48.60;;;;;;5113850;28;20032;-75
2021/05/13 10:06:51;;;;;;;4.38;2.22;;;21.70;48.60;;;;;;5115283;28;20060;-75
2021/05/13 10:09:18;;;;;;;5.72;2.30;;;21.50;49.20;;;;;;5088853;28;20453;-67
2021/05/13 10:11:48;;;;;;;3.42;2.17;;;21.40;50.20;;;;;;5117130;28;20028;-68
2021/05/13 10:14:14;;;;;;;4.18;2.00;;;21.30;50.40;;;;;;5116531;28;20055;-67
2021/05/13 10:16:41;;;;;;;6.10;2.13;;;21.50;50.40;;;;;;5115487;28;20043;-68
2021/05/13 10:19:12;;;;;;;7.18;1.80;;;21.70;49.80;;;;;;5116427;28;20028;-67
2021/05/13 10:21:41;;;;;;;3.53;2.00;;;21.90;49.60;;;;;;5116749;28;20114;-67
2021/05/13 10:24:10;;;;;;;5.80;1.92;;;21.90;49.30;;;;;;5114342;28;20099;-67
2021/05/13 10:26:36;;;;;;;4.72;1.95;;;21.80;48.90;;;;;;5096635;28;20602;-68
2021/05/13 10:29:22;;;;;;;4.85;1.80;;;21.80;48.40;;;;;;5097474;28;20028;-68
2021/05/13 10:32:23;;;;;;;4.70;1.80;;;21.80;49.10;;;;;;5083374;28;20036;-67
2021/05/13 10:34:59;;;;;;;2.85;2.10;;;22.10;49.50;;;;;;5082770;28;20103;-68
2021/05/13 10:37:41;;;;;;;3.92;2.00;;;22.20;49.40;;;;;;5082663;28;20060;-67
2021/05/13 10:43:05;;;;;;;4.53;2.35;;;22.00;49.30;;;;;;5082639;28;20040;-67
2021/05/13 10:45:30;;;;;;;4.05;1.90;;;21.90;49.10;;;;;;5107564;28;20136;-68
2021/05/13 10:48:22;;;;;;;4.20;2.20;;;21.70;49.30;;;;;;5090084;28;20111;-67
2021/05/13 10:51:03;;;;;;;2.90;2.03;;;21.40;48.60;;;;;;5117530;28;20031;-68
2021/05/13 10:53:39;;;;;;;4.97;1.73;;;20.70;49.50;;;;;;5112908;28;20097;-67
2021/05/13 10:56:11;;;;;;;4.85;2.30;;;20.00;51.20;;;;;;5122533;28;20027;-67
2021/05/13 10:59:10;;;;;;;5.60;2.53;;;19.30;53.00;;;;;;5117047;28;20492;-66
2021/05/13 11:01:56;;;;;;;5.68;2.00;;;18.70;54.90;;;;;;5118320;28;20020;-67
2021/05/13 11:04:27;;;;;;;3.95;1.90;;;18.60;55.70;;;;;;5116624;28;20089;-67
2021/05/13 11:07:26;;;;;;;6.03;2.28;;;18.40;56.10;;;;;;5115822;28;20040;-68
2021/05/13 11:09:54;;;;;;;4.00;2.08;;;18.20;57.20;;;;;;5093743;28;20032;-68
2021/05/13 11:12:42;;;;;;;5.63;2.58;;;18.00;57.80;;;;;;5112458;28;20020;-67
2021/05/13 11:15:22;;;;;;;5.63;2.55;;;17.80;58.80;;;;;;5115555;28;20442;-67
2021/05/13 11:20:28;;;;;;;4.35;1.95;;;17.60;60.10;;;;;;5115523;28;20469;-67
2021/05/13 11:23:08;;;;;;;5.60;2.40;;;17.70;59.80;;;;;;5088009;28;20457;-67
2021/05/13 11:25:42;;;;;;;7.47;2.20;;;17.80;60.00;;;;;;5115328;28;20038;-71
2021/05/13 11:28:38;;;;;;;4.33;2.10;;;17.90;59.80;;;;;;5115699;28;20379;-68
2021/05/13 11:31:07;;;;;;;4.88;2.00;;;17.80;60.30;;;;;;5114662;28;20297;-68
2021/05/13 11:33:48;;;;;;;3.40;2.17;;;18.00;60.50;;;;;;5115327;28;20024;-68
2021/05/13 11:36:20;;;;;;;4.90;1.83;;;18.10;60.00;;;;;;5110774;28;20044;-68
2021/05/13 11:38:54;;;;;;;8.18;2.13;;;18.30;59.20;;;;;;5105463;28;20032;-68
2021/05/13 11:41:20;;;;;;;7.63;2.15;;;18.20;58.30;;;;;;5114810;28;20012;-68
2021/05/13 11:43:46;;;;;;;4.20;2.08;;;18.10;58.30;;;;;;5115099;28;20026;-68
2021/05/13 11:46:16;;;;;;;6.55;2.55;;;18.10;58.60;;;;;;5114762;28;20036;-68
2021/05/13 11:48:44;;;;;;;8.68;2.55;;;18.00;58.60;;;;;;5114643;28;20461;-68
2021/05/13 11:51:17;;;;;;;9.23;2.40;;;17.80;58.90;;;;;;5114386;28;20378;-68
2021/05/13 11:53:45;;;;;;;3.22;1.80;;;17.70;59.00;;;;;;5114640;28;20523;-68
2021/05/13 11:56:15;;;;;;;4.65;2.15;;;17.60;58.60;;;;;;5113335;28;20118;-68
2021/05/13 11:59:03;;;;;;;7.07;1.90;;;17.50;58.80;;;;;;5113941;28;20065;-68
2021/05/13 12:01:37;;;;;;;4.88;2.28;;;17.40;59.00;;;;;;5114831;28;20051;-68
2021/05/13 12:04:15;;;;;;;4.95;2.17;;;17.30;59.60;;;;;;5114113;28;20019;-67
2021/05/13 12:06:51;;;;;;;4.75;2.13;;;17.20;59.80;;;;;;5114077;28;20027;-67
2021/05/13 12:09:20;;;;;;;5.38;2.50;;;17.20;59.80;;;;;;5114658;28;20054;-68
2021/05/13 12:11:46;;;;;;;4.72;2.20;;;17.10;60.10;;;;;;5114478;28;20032;-68
2021/05/13 12:14:29;;;;;;;2.97;2.03;;;16.90;60.60;;;;;;5114212;28;20051;-68
2021/05/13 12:17:02;;;;;;;4.75;2.30;;;16.90;61.30;;;;;;5114647;28;20028;-68
2021/05/13 12:19:32;;;;;;;6.47;2.63;;;16.80;62.20;;;;;;5113777;28;20031;-68
2021/05/13 12:22:01;;;;;;;3.92;2.42;;;16.70;62.60;;;;;;5114783;28;20035;-68
2021/05/13 12:24:32;;;;;;;8.80;2.47;;;16.70;63.10;;;;;;5113812;28;20530;-68
2021/05/13 12:26:59;;;;;;;14.63;3.33;;;16.70;63.30;;;;;;5114548;28;20031;-67
2021/05/13 12:29:25;;;;;;;10.85;3.47;;;16.80;63.20;;;;;;5113989;28;20047;-68
2021/05/13 12:31:51;;;;;;;5.55;2.70;;;16.80;63.40;;;;;;5104912;28;20077;-68
2021/05/13 12:34:43;;;;;;;7.40;2.88;;;17.00;63.00;;;;;;5096108;28;20027;-67
2021/05/13 12:37:19;;;;;;;7.20;3.30;;;17.10;62.80;;;;;;5087244;28;20040;-68
2021/05/13 12:39:45;;;;;;;13.63;3.25;;;17.20;62.90;;;;;;5073986;28;20024;-68
2021/05/13 12:42:29;;;;;;;13.40;4.13;;;17.20;62.80;;;;;;5085306;28;20020;-68
2021/05/13 12:45:18;;;;;;;5.60;2.80;;;17.30;63.10;;;;;;5108542;28;20020;-68
2021/05/13 12:47:45;;;;;;;4.63;1.60;;;17.40;61.70;;;;;;5107338;28;20028;-68
2021/05/13 12:50:11;;;;;;;5.90;1.90;;;17.60;57.80;;;;;;5106306;28;20032;-68
2021/05/13 12:52:39;;;;;;;4.15;1.50;;;17.80;54.20;;;;;;5111864;28;20031;-67
2021/05/13 12:55:16;;;;;;;3.17;1.42;;;17.90;52.10;;;;;;5116110;28;20020;-67
2021/05/13 12:57:44;;;;;;;2.53;1.67;;;18.00;50.60;;;;;;5115304;28;20039;-68
2021/05/13 13:00:11;;;;;;;5.75;2.05;;;18.10;49.60;;;;;;5114082;28;20023;-68
2021/05/13 13:02:37;;;;;;;3.25;1.67;;;18.30;49.30;;;;;;5113886;28;20524;-68
2021/05/13 13:05:08;;;;;;;2.67;1.80;;;18.40;49.00;;;;;;5101469;28;20109;-68
2021/05/13 13:07:43;;;;;;;5.43;1.58;;;18.50;48.50;;;;;;5085823;28;20109;-68